Time;durP1;ratioP1;P1;durP2;ratioP2;P2;SDS_P1;SDS_P2;PMS_P1;PMS_P2;Temp;Humidity;BMP_temperature;BMP_pressure;BME280_temperature;BME280_humidity;BME280_pressure;Samples;Min_cycle;Max_cycle;Signal;HPM_P1;HPM_P2
2023/07/27 00:01:21;;;;;;;;;;;17.60;99.90;;;;;;5128684;27;19908;-64
2023/07/27 00:03:47;;;;;;;;;;;17.60;99.90;;;;;;5128221;27;19915;-64
2023/07/27 00:06:13;;;;;;;;;;;17.60;99.90;;;;;;5127075;27;19947;-64
2023/07/27 00:08:38;;;;;;;;;;;17.60;99.90;;;;;;5128965;27;20439;-64
2023/07/27 00:11:04;;;;;;;;;;;17.60;99.90;;;;;;5127453;28;19998;-64
2023/07/27 00:13:30;;;;;;;;;;;17.60;99.90;;;;;;5127469;28;20011;-64
2023/07/27 00:15:55;;;;;;;;;;;17.60;99.90;;;;;;5128939;28;20290;-64
2023/07/27 00:18:21;;;;;;;;;;;17.60;99.90;;;;;;5127222;28;20370;-64
2023/07/27 00:20:46;;;;;;;;;;;17.60;99.90;;;;;;5127697;28;19920;-64
2023/07/27 00:23:12;;;;;;;;;;;17.60;99.90;;;;;;5128730;28;20283;-64
2023/07/27 00:25:38;;;;;;;;;;;17.60;99.90;;;;;;5126905;28;20288;-64
2023/07/27 00:28:04;;;;;;;;;;;17.60;99.90;;;;;;5128218;28;19907;-64
2023/07/27 00:30:29;;;;;;;;;;;17.60;99.90;;;;;;5128232;28;19929;-64
2023/07/27 00:32:55;;;;;;;;;;;17.60;99.90;;;;;;5126802;28;19915;-64
2023/07/27 00:35:20;;;;;;;;;;;17.60;99.90;;;;;;5128475;28;19907;-64
2023/07/27 00:37:46;;;;;;;;;;;17.60;99.90;;;;;;5127966;28;19917;-64
2023/07/27 00:40:12;;;;;;;;;;;17.60;99.90;;;;;;5126979;28;19927;-64
2023/07/27 00:42:37;;;;;;;;;;;17.60;99.90;;;;;;5128524;28;20003;-64
2023/07/27 00:45:03;;;;;;;;;;;17.60;99.90;;;;;;5127235;28;19907;-64
2023/07/27 00:47:29;;;;;;;;;;;17.70;99.90;;;;;;5127052;28;19908;-64
2023/07/27 00:49:55;;;;;;;;;;;17.70;99.90;;;;;;5128805;28;20047;-64
2023/07/27 00:52:21;;;;;;;;;;;17.70;99.90;;;;;;5126706;28;19919;-64
2023/07/27 00:54:47;;;;;;;;;;;17.70;99.90;;;;;;5125078;28;19908;-64
2023/07/27 00:57:12;;;;;;;;;;;17.70;99.90;;;;;;5125711;28;19911;-64
2023/07/27 00:59:39;;;;;;;;;;;17.70;99.90;;;;;;5127092;28;19961;-64
2023/07/27 01:02:05;;;;;;;;;;;17.60;99.90;;;;;;5129260;28;19912;-64
2023/07/27 01:04:30;;;;;;;;;;;17.60;99.90;;;;;;5126478;28;19908;-64
2023/07/27 01:06:56;;;;;;;;;;;17.60;99.90;;;;;;5128243;28;20353;-64
2023/07/27 01:09:22;;;;;;;;;;;17.60;99.90;;;;;;5127592;28;20370;-64
2023/07/27 01:11:50;;;;;;;;;;;17.50;99.90;;;;;;5126449;28;19962;-64
2023/07/27 01:14:35;;;;;;;;;;;17.50;99.90;;;;;;5126755;28;20290;-64
2023/07/27 01:17:06;;;;;;;;;;;17.50;99.90;;;;;;5127383;28;19941;-64
2023/07/27 01:19:57;;;;;;;;;;;17.50;99.90;;;;;;5125955;28;20004;-64
2023/07/27 01:22:32;;;;;;;;;;;17.50;99.90;;;;;;5128907;27;20366;-64
2023/07/27 01:25:17;;;;;;;;;;;17.50;99.90;;;;;;5130361;27;19908;-64
2023/07/27 01:27:46;;;;;;;;;;;17.50;99.90;;;;;;5131163;27;20418;-64
2023/07/27 01:30:24;;;;;;;;;;;17.50;99.90;;;;;;5129837;27;19908;-64
2023/07/27 01:32:54;;;;;;;;;;;17.50;99.90;;;;;;5130072;27;19919;-64
2023/07/27 01:35:21;;;;;;;;;;;17.50;99.90;;;;;;5131036;27;20293;-64
2023/07/27 01:37:47;;;;;;;;;;;17.50;99.90;;;;;;5131442;27;19918;-64
2023/07/27 01:40:14;;;;;;;;;;;17.50;99.90;;;;;;5129561;27;19907;-64
2023/07/27 01:42:40;;;;;;;;;;;17.50;99.90;;;;;;5130817;27;20325;-64
2023/07/27 01:45:06;;;;;;;;;;;17.50;99.90;;;;;;5126147;27;20390;-64
2023/07/27 01:47:32;;;;;;;;;;;17.50;99.90;;;;;;5121161;28;19908;-64
2023/07/27 01:49:59;;;;;;;;;;;17.50;99.90;;;;;;5120932;28;19915;-64
2023/07/27 01:52:25;;;;;;;;;;;17.50;99.90;;;;;;5120841;28;20451;-64
2023/07/27 01:54:51;;;;;;;;;;;17.40;99.90;;;;;;5123692;27;19911;-64
2023/07/27 01:57:17;;;;;;;;;;;17.50;99.90;;;;;;5130339;27;19964;-64
2023/07/27 01:59:43;;;;;;;;;;;17.50;99.90;;;;;;5129277;27;19914;-64
2023/07/27 02:02:09;;;;;;;;;;;17.40;99.90;;;;;;5129551;27;19908;-64
2023/07/27 02:04:35;;;;;;;;;;;17.40;99.90;;;;;;5130251;27;19908;-64
2023/07/27 02:07:00;;;;;;;;;;;17.40;99.90;;;;;;5130884;27;19951;-64
2023/07/27 02:09:26;;;;;;;;;;;17.50;99.90;;;;;;5129040;27;19912;-64
2023/07/27 02:11:54;;;;;;;;;;;17.50;99.90;;;;;;5130765;27;19911;-64
2023/07/27 02:14:31;;;;;;;;;;;17.40;99.90;;;;;;5130509;27;19947;-64
2023/07/27 02:16:59;;;;;;;;;;;17.40;99.90;;;;;;5130136;27;20292;-64
2023/07/27 02:19:28;;;;;;;;;;;17.50;99.90;;;;;;5128860;27;19923;-64
2023/07/27 02:21:54;;;;;;;;;;;17.50;99.90;;;;;;5130065;27;19915;-64
2023/07/27 02:24:20;;;;;;;;;;;17.40;99.90;;;;;;5130532;27;19908;-64
2023/07/27 02:26:46;;;;;;;;;;;17.40;99.90;;;;;;5128667;27;19963;-64
2023/07/27 02:29:11;;;;;;;;;;;17.40;99.90;;;;;;5130225;27;20288;-64
2023/07/27 02:31:37;;;;;;;;;;;17.40;99.90;;;;;;5129852;27;19911;-64
2023/07/27 02:34:03;;;;;;;;;;;17.40;99.90;;;;;;5127603;27;21362;-64
2023/07/27 02:36:28;;;;;;;;;;;17.40;99.90;;;;;;5128574;27;19907;-64
2023/07/27 02:38:54;;;;;;;;;;;17.30;99.90;;;;;;5129860;27;19915;-64
2023/07/27 02:41:19;;;;;;;;;;;17.40;99.90;;;;;;5130108;27;19908;-64
2023/07/27 02:43:45;;;;;;;;;;;17.40;99.90;;;;;;5130826;27;20022;-64
2023/07/27 02:46:11;;;;;;;;;;;17.30;99.90;;;;;;5125811;27;20007;-64
2023/07/27 02:48:36;;;;;;;;;;;17.30;99.90;;;;;;5129078;27;19917;-64
2023/07/27 02:51:02;;;;;;;;;;;17.30;99.90;;;;;;5130039;27;20243;-64
2023/07/27 02:53:28;;;;;;;;;;;17.30;99.90;;;;;;5128065;27;19914;-64
2023/07/27 02:55:54;;;;;;;;;;;17.30;99.90;;;;;;5129784;27;19965;-64
2023/07/27 02:58:20;;;;;;;;;;;17.30;99.90;;;;;;5130097;27;19914;-64
2023/07/27 03:00:49;;;;;;;;;;;17.30;99.90;;;;;;5128016;27;19912;-64
2023/07/27 03:03:14;;;;;;;;;;;17.30;99.90;;;;;;5129301;27;19914;-64
2023/07/27 03:05:40;;;;;;;;;;;17.30;99.90;;;;;;5129853;27;20002;-64
2023/07/27 03:08:05;;;;;;;;;;;17.30;99.90;;;;;;5127836;27;19912;-64
2023/07/27 03:10:33;;;;;;;;;;;17.30;99.90;;;;;;5129506;27;19904;-64
2023/07/27 03:12:59;;;;;;;;;;;17.30;99.90;;;;;;5129296;27;19955;-64
2023/07/27 03:15:25;;;;;;;;;;;17.30;99.90;;;;;;5127643;27;19911;-64
2023/07/27 03:17:50;;;;;;;;;;;17.30;99.90;;;;;;5129665;27;20002;-64
2023/07/27 03:20:16;;;;;;;;;;;17.20;99.90;;;;;;5128555;27;20038;-64
2023/07/27 03:22:41;;;;;;;;;;;17.20;99.90;;;;;;5109557;28;19907;-64
2023/07/27 03:25:07;;;;;;;;;;;17.20;99.90;;;;;;5129667;27;19907;-64
2023/07/27 03:27:33;;;;;;;;;;;17.20;99.90;;;;;;5128255;27;20027;-64
2023/07/27 03:29:58;;;;;;;;;;;17.20;99.90;;;;;;5128243;27;19909;-64
2023/07/27 03:32:24;;;;;;;;;;;17.20;99.90;;;;;;5129551;27;20405;-64
2023/07/27 03:34:49;;;;;;;;;;;17.20;99.90;;;;;;5127661;27;20063;-64
2023/07/27 03:37:15;;;;;;;;;;;17.20;99.90;;;;;;5128561;27;19914;-64
2023/07/27 03:39:41;;;;;;;;;;;17.20;99.90;;;;;;5129117;27;19915;-64
2023/07/27 03:42:06;;;;;;;;;;;17.20;99.90;;;;;;5127227;27;19957;-64
2023/07/27 03:44:32;;;;;;;;;;;17.20;99.90;;;;;;5128695;27;20307;-64
2023/07/27 03:46:57;;;;;;;;;;;17.20;99.90;;;;;;5128479;27;20343;-64
2023/07/27 03:49:23;;;;;;;;;;;17.20;99.90;;;;;;5127429;27;19918;-64
2023/07/27 03:51:49;;;;;;;;;;;17.20;99.90;;;;;;5126966;27;19912;-64
2023/07/27 03:54:14;;;;;;;;;;;17.20;99.90;;;;;;5128428;27;19907;-64
2023/07/27 03:56:40;;;;;;;;;;;17.20;99.90;;;;;;5128843;27;19911;-64
2023/07/27 03:59:05;;;;;;;;;;;17.20;99.90;;;;;;5127180;27;19908;-64
2023/07/27 04:01:31;;;;;;;;;;;17.20;99.90;;;;;;5129024;27;20282;-64
2023/07/27 04:03:57;;;;;;;;;;;17.20;99.90;;;;;;5128165;27;20321;-64
2023/07/27 04:06:22;;;;;;;;;;;17.20;99.90;;;;;;5127195;27;19914;-64
2023/07/27 04:08:48;;;;;;;;;;;17.20;99.90;;;;;;5128989;27;19914;-64
2023/07/27 04:11:13;;;;;;;;;;;17.20;99.90;;;;;;5127492;27;20053;-64
2023/07/27 04:13:39;;;;;;;;;;;17.20;99.90;;;;;;5127534;28;19914;-64
2023/07/27 04:16:05;;;;;;;;;;;17.20;99.90;;;;;;5129498;28;20413;-64
2023/07/27 04:18:30;;;;;;;;;;;17.20;99.90;;;;;;5127041;28;19908;-64
2023/07/27 04:20:56;;;;;;;;;;;17.20;99.90;;;;;;5127814;28;19924;-64
2023/07/27 04:23:22;;;;;;;;;;;17.20;99.90;;;;;;5128678;28;19908;-64
2023/07/27 04:25:47;;;;;;;;;;;17.20;99.90;;;;;;5126708;28;20335;-64
2023/07/27 04:28:13;;;;;;;;;;;17.20;99.90;;;;;;5128332;28;19915;-64
2023/07/27 04:30:40;;;;;;;;;;;17.20;99.90;;;;;;5128121;28;19951;-64
2023/07/27 04:33:05;;;;;;;;;;;17.20;99.90;;;;;;5126855;28;19908;-64
2023/07/27 04:35:31;;;;;;;;;;;17.20;99.90;;;;;;5128544;28;20404;-64
2023/07/27 04:37:57;;;;;;;;;;;17.30;99.90;;;;;;5127766;28;19915;-64
2023/07/27 04:40:22;;;;;;;;;;;17.30;99.90;;;;;;5127079;28;19911;-64
2023/07/27 04:42:48;;;;;;;;;;;17.30;99.90;;;;;;5128676;28;20358;-64
2023/07/27 04:45:13;;;;;;;;;;;17.20;99.90;;;;;;5127304;28;19908;-64
2023/07/27 04:47:39;;;;;;;;;;;17.20;99.90;;;;;;5127172;28;19907;-64
2023/07/27 04:50:05;;;;;;;;;;;17.30;99.90;;;;;;5128531;28;20348;-64
2023/07/27 04:52:31;;;;;;;;;;;17.20;99.90;;;;;;5126637;28;19918;-64
2023/07/27 04:54:56;;;;;;;;;;;17.30;99.90;;;;;;5138618;28;19911;-64
2023/07/27 04:57:22;;;;;;;;;;;17.30;99.90;;;;;;5139862;27;19908;-64
2023/07/27 04:59:47;;;;;;;;;;;17.30;99.90;;;;;;5142239;27;19907;-64
2023/07/27 05:02:13;;;;;;;;;;;17.30;99.90;;;;;;5142906;27;19911;-64
2023/07/27 05:04:39;;;;;;;;;;;17.30;99.90;;;;;;5142406;27;20002;-64
2023/07/27 05:07:04;;;;;;;;;;;17.20;99.90;;;;;;5142477;27;19908;-64
2023/07/27 05:09:30;;;;;;;;;;;17.20;99.90;;;;;;5142110;27;19907;-64
2023/07/27 05:11:56;;;;;;;;;;;17.20;99.90;;;;;;5142091;27;19918;-64
2023/07/27 05:14:21;;;;;;;;;;;17.20;99.90;;;;;;5142563;27;19908;-64
2023/07/27 05:16:47;;;;;;;;;;;17.20;99.90;;;;;;5142151;27;19914;-64
2023/07/27 05:19:12;;;;;;;;;;;17.20;99.90;;;;;;5142129;27;19908;-64
2023/07/27 05:21:38;;;;;;;;;;;17.20;99.90;;;;;;5142570;27;19911;-64
2023/07/27 05:24:04;;;;;;;;;;;17.20;99.90;;;;;;5142014;27;19919;-64
2023/07/27 05:26:31;;;;;;;;;;;17.30;99.90;;;;;;5141263;27;20119;-64
2023/07/27 05:28:57;;;;;;;;;;;17.30;99.90;;;;;;5142117;27;19908;-64
2023/07/27 05:31:23;;;;;;;;;;;17.30;99.90;;;;;;5142053;27;19966;-64
2023/07/27 05:33:48;;;;;;;;;;;17.30;99.90;;;;;;5142028;27;19998;-64
2023/07/27 05:36:14;;;;;;;;;;;17.30;99.90;;;;;;5142128;27;19908;-64
2023/07/27 05:38:40;;;;;;;;;;;17.30;99.90;;;;;;5141919;27;19907;-64
2023/07/27 05:41:05;;;;;;;;;;;17.40;99.90;;;;;;5141619;27;19998;-64
2023/07/27 05:43:31;;;;;;;;;;;17.40;99.90;;;;;;5141990;27;19907;-64
2023/07/27 05:45:56;;;;;;;;;;;17.40;99.90;;;;;;5142000;27;20023;-64
2023/07/27 05:48:22;;;;;;;;;;;17.40;99.90;;;;;;5141712;27;20251;-64
2023/07/27 05:50:47;;;;;;;;;;;17.40;99.90;;;;;;5141458;27;19911;-64
2023/07/27 05:53:13;;;;;;;;;;;17.40;99.90;;;;;;5141678;27;19911;-64
2023/07/27 05:55:39;;;;;;;;;;;17.40;99.90;;;;;;5131585;27;19912;-64
2023/07/27 05:58:05;;;;;;;;;;;17.50;99.90;;;;;;5121103;28;19908;-64
2023/07/27 06:00:30;;;;;;;;;;;17.40;99.90;;;;;;5120910;28;19908;-64
2023/07/27 06:02:56;;;;;;;;;;;17.50;99.90;;;;;;5120462;28;19912;-64
2023/07/27 06:05:21;;;;;;;;;;;17.40;99.90;;;;;;5120642;28;19908;-64
2023/07/27 06:07:47;;;;;;;;;;;17.50;99.90;;;;;;5120803;28;20359;-64
2023/07/27 06:10:13;;;;;;;;;;;17.50;99.90;;;;;;5117900;28;19915;-64
2023/07/27 06:12:38;;;;;;;;;;;17.50;99.90;;;;;;5119414;28;19916;-64
2023/07/27 06:15:04;;;;;;;;;;;17.50;99.90;;;;;;5119943;28;19943;-64
2023/07/27 06:17:30;;;;;;;;;;;17.50;99.90;;;;;;5120049;28;19911;-64
2023/07/27 06:19:56;;;;;;;;;;;17.50;99.90;;;;;;5119868;28;19926;-64
2023/07/27 06:22:21;;;;;;;;;;;17.60;99.90;;;;;;5119666;28;19933;-64
2023/07/27 06:24:47;;;;;;;;;;;17.60;99.90;;;;;;5120053;28;19912;-64
2023/07/27 06:27:13;;;;;;;;;;;17.70;99.90;;;;;;5120244;28;19946;-64
2023/07/27 06:29:38;;;;;;;;;;;17.70;99.90;;;;;;5119876;28;19912;-64
2023/07/27 06:32:04;;;;;;;;;;;17.80;99.90;;;;;;5119514;28;19919;-64
2023/07/27 06:34:30;;;;;;;;;;;17.80;99.90;;;;;;5119894;28;19941;-64
2023/07/27 06:36:55;;;;;;;;;;;17.80;99.90;;;;;;5120195;28;19961;-64
2023/07/27 06:39:21;;;;;;;;;;;17.80;99.90;;;;;;5120459;28;20368;-63
2023/07/27 06:41:47;;;;;;;;;;;17.90;99.90;;;;;;5119777;28;20428;-63
2023/07/27 06:44:12;;;;;;;;;;;17.90;99.90;;;;;;5119706;28;19915;-63
2023/07/27 06:46:38;;;;;;;;;;;17.90;99.90;;;;;;5101549;28;19918;-63
2023/07/27 06:49:04;;;;;;;;;;;18.00;99.90;;;;;;5119896;28;19907;-64
2023/07/27 06:51:30;;;;;;;;;;;17.90;99.90;;;;;;5119769;28;19983;-64
2023/07/27 06:53:56;;;;;;;;;;;18.00;99.90;;;;;;5119602;28;19915;-64
2023/07/27 06:56:21;;;;;;;;;;;18.00;99.90;;;;;;5119815;28;19907;-64
2023/07/27 06:58:47;;;;;;;;;;;18.00;99.90;;;;;;5119782;28;19911;-63
2023/07/27 07:01:12;;;;;;;;;;;18.00;99.90;;;;;;5119514;28;19908;-63
2023/07/27 07:03:38;;;;;;;;;;;18.00;99.90;;;;;;5119637;28;19915;-64
2023/07/27 07:06:04;;;;;;;;;;;18.00;99.90;;;;;;5120073;28;19914;-63
2023/07/27 07:08:29;;;;;;;;;;;18.00;99.90;;;;;;5119377;28;19912;-64
2023/07/27 07:10:55;;;;;;;;;;;18.00;99.90;;;;;;5118524;27;19912;-64
2023/07/27 07:13:21;;;;;;;;;;;17.90;99.90;;;;;;5119351;28;20378;-63
2023/07/27 07:15:49;;;;;;;;;;;17.90;99.90;;;;;;5118272;27;19919;-64
2023/07/27 07:18:14;;;;;;;;;;;17.90;99.90;;;;;;5117453;28;19916;-63
2023/07/27 07:20:40;;;;;;;;;;;17.90;99.90;;;;;;5117602;28;19934;-63
2023/07/27 07:23:06;;;;;;;;;;;17.90;99.90;;;;;;5118688;28;19908;-63
2023/07/27 07:25:31;;;;;;;;;;;17.80;99.90;;;;;;5117508;27;20459;-63
2023/07/27 07:27:57;;;;;;;;;;;17.70;99.90;;;;;;5118507;28;20247;-63
2023/07/27 07:30:23;;;;;;;;;;;17.70;99.90;;;;;;5114147;27;19918;-64
2023/07/27 07:32:49;;;;;;;;;;;17.70;99.90;;;;;;5138855;27;19911;-64
2023/07/27 07:35:15;;;;;;;;;;;17.70;99.90;;;;;;5130329;27;19911;-64
2023/07/27 07:37:41;;;;;;;;;;;17.60;99.90;;;;;;5118405;28;19915;-64
2023/07/27 07:40:07;;;;;;;;;;;17.70;99.90;;;;;;5118459;28;19919;-64
2023/07/27 07:42:33;;;;;;;;;;;17.60;99.90;;;;;;5118534;28;19908;-64
2023/07/27 07:44:58;;;;;;;;;;;17.70;99.90;;;;;;5118683;28;20393;-64
2023/07/27 07:47:24;;;;;;;;;;;17.70;99.90;;;;;;5118179;28;20370;-64
2023/07/27 07:49:50;;;;;;;;;;;17.70;99.90;;;;;;5118545;28;19951;-64
2023/07/27 07:52:15;;;;;;;;;;;17.70;99.90;;;;;;5118073;28;19911;-64
2023/07/27 07:54:41;;;;;;;;;;;17.70;99.90;;;;;;5118766;28;20370;-64
2023/07/27 07:57:07;;;;;;;;;;;17.80;99.90;;;;;;5118188;28;19919;-64
2023/07/27 07:59:32;;;;;;;;;;;17.80;99.90;;;;;;5118095;27;19934;-64
2023/07/27 08:01:58;;;;;;;;;;;17.80;99.90;;;;;;5117906;28;19912;-64
2023/07/27 08:04:24;;;;;;;;;;;17.80;99.90;;;;;;5118012;28;19916;-64
2023/07/27 08:06:49;;;;;;;;;;;17.90;99.90;;;;;;5118257;28;19961;-64
2023/07/27 08:09:15;;;;;;;;;;;17.90;99.90;;;;;;5117326;28;20350;-64
2023/07/27 08:11:41;;;;;;;;;;;17.90;99.90;;;;;;5117780;28;19916;-64
2023/07/27 08:14:10;;;;;;;;;;;18.00;99.90;;;;;;5126334;28;20297;-64
2023/07/27 08:16:36;;;;;;;;;;;18.00;99.90;;;;;;5102103;28;19912;-64
2023/07/27 08:19:01;;;;;;;;;;;18.00;99.90;;;;;;5118071;28;19914;-64
2023/07/27 08:21:30;;;;;;;;;;;18.00;99.90;;;;;;5134373;28;19994;-64
2023/07/27 08:23:57;;;;;;;;;;;17.90;99.90;;;;;;5138372;28;20447;-64
2023/07/27 08:26:23;;;;;;;;;;;17.80;99.90;;;;;;5138103;28;19960;-64
2023/07/27 08:28:48;;;;;;;;;;;17.80;99.90;;;;;;5138321;28;19907;-64
2023/07/27 08:31:14;;;;;;;;;;;17.80;99.90;;;;;;5139248;27;19945;-64
2023/07/27 08:33:40;;;;;;;;;;;17.70;99.90;;;;;;5142661;27;19907;-64
2023/07/27 08:36:05;;;;;;;;;;;17.80;99.90;;;;;;5140122;27;19962;-64
2023/07/27 08:38:31;;;;;;;;;;;17.80;99.90;;;;;;5142548;27;19983;-64
2023/07/27 08:40:58;;;;;;;;;;;17.80;99.90;;;;;;5142358;27;20327;-64
2023/07/27 08:43:24;;;;;;;;;;;17.90;99.90;;;;;;5142152;27;20273;-64
2023/07/27 08:45:50;;;;;;;;;;;17.90;99.90;;;;;;5142064;27;20388;-64
2023/07/27 08:48:16;;;;;;;;;;;17.90;99.90;;;;;;5142273;27;19908;-64
2023/07/27 08:50:46;;;;;;;;;;;18.00;99.90;;;;;;5123863;27;19911;-64
2023/07/27 08:53:11;;;;;;;;;;;17.90;99.90;;;;;;5141942;27;19929;-64
2023/07/27 08:55:40;;;;;;;;;;;17.80;99.90;;;;;;5141929;27;19916;-64
2023/07/27 08:58:06;;;;;;;;;;;17.80;99.90;;;;;;5142314;27;19915;-64
2023/07/27 09:00:33;;;;;;;;;;;17.80;99.90;;;;;;5133937;27;19916;-64
2023/07/27 09:02:59;;;;;;;;;;;17.80;99.90;;;;;;5120547;28;19915;-64
2023/07/27 09:05:38;;;;;;;;;;;17.80;99.90;;;;;;5125528;27;19912;-64
2023/07/27 09:08:08;;;;;;;;;;;17.70;99.90;;;;;;5141551;27;20005;-64
2023/07/27 09:10:34;;;;;;;;;;;17.70;99.90;;;;;;5141416;27;20389;-64
2023/07/27 09:13:00;;;;;;;;;;;17.70;99.90;;;;;;5141753;27;19908;-64
2023/07/27 09:15:26;;;;;;;;;;;17.70;99.90;;;;;;5141616;27;19919;-64
2023/07/27 09:17:52;;;;;;;;;;;17.60;99.90;;;;;;5141742;27;19912;-64
2023/07/27 09:20:18;;;;;;;;;;;17.60;99.90;;;;;;5141204;27;19955;-64
2023/07/27 09:22:45;;;;;;;;;;;17.60;99.90;;;;;;5140139;27;19908;-64
2023/07/27 09:25:11;;;;;;;;;;;17.50;99.90;;;;;;5140075;27;20351;-64
2023/07/27 09:27:43;;;;;;;;;;;17.50;99.90;;;;;;5139758;27;19958;-64
2023/07/27 09:30:09;;;;;;;;;;;17.50;99.90;;;;;;5140445;27;19908;-64
2023/07/27 09:32:38;;;;;;;;;;;17.50;99.90;;;;;;5141079;27;19912;-64
2023/07/27 09:35:04;;;;;;;;;;;17.50;99.90;;;;;;5141095;27;19907;-64
2023/07/27 09:37:30;;;;;;;;;;;17.50;99.90;;;;;;5141729;27;19907;-64
2023/07/27 09:40:07;;;;;;;;;;;17.50;99.90;;;;;;5125885;27;20370;-64
2023/07/27 09:42:33;;;;;;;;;;;17.50;99.90;;;;;;5140969;27;19908;-64
2023/07/27 09:44:59;;;;;;;;;;;17.50;99.90;;;;;;5138563;27;20392;-64
2023/07/27 09:47:30;;;;;;;;;;;17.50;99.90;;;;;;5141598;27;19908;-64
2023/07/27 09:49:57;;;;;;;;;;;17.60;99.90;;;;;;5141546;27;19908;-64
2023/07/27 09:52:23;;;;;;;;;;;17.60;99.90;;;;;;5141648;27;19912;-64
2023/07/27 09:54:49;;;;;;;;;;;17.60;99.90;;;;;;5141401;27;19915;-64
2023/07/27 09:57:15;;;;;;;;;;;17.60;99.90;;;;;;5141417;27;19915;-64
2023/07/27 09:59:41;;;;;;;;;;;17.60;99.90;;;;;;5141482;27;19972;-64
2023/07/27 10:02:07;;;;;;;;;;;17.60;99.90;;;;;;5141115;27;19912;-64
2023/07/27 10:04:32;;;;;;;;;;;17.60;99.90;;;;;;5141149;27;19911;-65
2023/07/27 10:06:58;;;;;;;;;;;17.50;99.90;;;;;;5141352;27;19907;-66
2023/07/27 10:09:24;;;;;;;;;;;17.40;99.90;;;;;;5141108;27;19914;-66
2023/07/27 10:11:54;;;;;;;;;;;17.30;99.90;;;;;;5140975;27;19912;-66
2023/07/27 10:14:20;;;;;;;;;;;17.20;99.90;;;;;;5141057;27;19947;-66
2023/07/27 10:17:07;;;;;;;;;;;17.10;99.90;;;;;;5141101;27;19907;-66
2023/07/27 10:19:41;;;;;;;;;;;17.10;99.90;;;;;;5140850;27;19961;-66
2023/07/27 10:22:08;;;;;;;;;;;17.00;99.90;;;;;;5140615;27;19995;-67
2023/07/27 10:24:47;;;;;;;;;;;17.00;99.90;;;;;;5141189;27;20310;-67
2023/07/27 10:27:12;;;;;;;;;;;17.00;99.90;;;;;;5140772;27;20358;-67
2023/07/27 10:29:38;;;;;;;;;;;17.00;99.90;;;;;;5141080;27;19914;-67
2023/07/27 10:32:04;;;;;;;;;;;16.90;99.90;;;;;;5140765;27;19911;-66
2023/07/27 10:34:30;;;;;;;;;;;17.00;99.90;;;;;;5140517;27;20286;-67
2023/07/27 10:36:57;;;;;;;;;;;16.90;99.90;;;;;;5140368;27;19908;-67
2023/07/27 10:39:24;;;;;;;;;;;16.90;99.90;;;;;;5140409;27;19907;-67
2023/07/27 10:42:06;;;;;;;;;;;16.90;99.90;;;;;;5140224;27;19908;-67
2023/07/27 10:44:41;;;;;;;;;;;16.90;99.90;;;;;;5140972;27;19908;-67
2023/07/27 10:47:07;;;;;;;;;;;16.80;99.90;;;;;;5140477;27;19907;-66
2023/07/27 10:49:37;;;;;;;;;;;16.90;99.90;;;;;;5139700;27;19914;-67
2023/07/27 10:52:03;;;;;;;;;;;16.90;99.90;;;;;;5138847;27;20002;-67
2023/07/27 10:54:29;;;;;;;;;;;16.90;99.90;;;;;;5138357;27;19947;-67
2023/07/27 10:56:55;;;;;;;;;;;16.90;99.90;;;;;;5139709;27;20331;-67
2023/07/27 10:59:21;;;;;;;;;;;16.90;99.90;;;;;;5139754;27;19933;-67
2023/07/27 11:01:47;;;;;;;;;;;16.90;99.90;;;;;;5139539;27;19994;-66
2023/07/27 11:04:13;;;;;;;;;;;16.90;99.90;;;;;;5139775;27;19952;-67
2023/07/27 11:06:46;;;;;;;;;;;16.90;99.90;;;;;;5139858;27;20274;-66
2023/07/27 11:09:13;;;;;;;;;;;16.90;99.90;;;;;;5139844;27;19921;-66
2023/07/27 11:11:39;;;;;;;;;;;17.00;99.90;;;;;;5139742;27;19911;-66
2023/07/27 11:14:05;;;;;;;;;;;16.90;99.90;;;;;;5139657;27;20046;-66
2023/07/27 11:16:31;;;;;;;;;;;17.00;99.90;;;;;;5139634;27;19915;-66
2023/07/27 11:18:57;;;;;;;;;;;17.00;99.90;;;;;;5139705;27;19912;-66
2023/07/27 11:21:23;;;;;;;;;;;17.00;99.90;;;;;;5139516;27;19927;-66
2023/07/27 11:23:49;;;;;;;;;;;17.00;99.90;;;;;;5139961;27;19914;-67
2023/07/27 11:26:15;;;;;;;;;;;17.00;99.90;;;;;;5139531;27;20278;-66
2023/07/27 11:28:40;;;;;;;;;;;17.00;99.90;;;;;;5140008;27;19915;-66
2023/07/27 11:31:09;;;;;;;;;;;17.00;99.90;;;;;;5139481;27;20370;-67
2023/07/27 11:33:38;;;;;;;;;;;17.00;99.90;;;;;;5139588;27;19907;-67
2023/07/27 11:36:07;;;;;;;;;;;17.00;99.90;;;;;;5139276;27;19930;-66
2023/07/27 11:38:33;;;;;;;;;;;17.00;99.90;;;;;;5139690;27;20324;-66
2023/07/27 11:40:59;;;;;;;;;;;17.10;99.90;;;;;;5139225;27;19908;-67
2023/07/27 11:43:25;;;;;;;;;;;17.10;99.90;;;;;;5139453;27;19907;-66
2023/07/27 11:45:57;;;;;;;;;;;17.10;99.90;;;;;;5139519;27;20354;-67
2023/07/27 11:48:26;;;;;;;;;;;17.20;99.90;;;;;;5139303;27;19908;-66
2023/07/27 11:50:53;;;;;;;;;;;17.20;99.90;;;;;;5139261;27;19918;-66
2023/07/27 11:53:21;;;;;;;;;;;17.20;99.90;;;;;;5120754;27;19907;-66
2023/07/27 11:55:48;;;;;;;;;;;17.20;99.90;;;;;;5139246;27;19912;-67
2023/07/27 11:58:14;;;;;;;;;;;17.20;99.90;;;;;;5138980;27;19908;-66
2023/07/27 12:00:39;;;;;;;;;;;17.20;99.90;;;;;;5139175;27;19907;-66
2023/07/27 12:03:05;;;;;;;;;;;17.30;99.90;;;;;;5139587;27;19908;-66
2023/07/27 12:05:31;;;;;;;;;;;17.30;99.90;;;;;;5138494;27;19951;-66
2023/07/27 12:07:57;;;;;;;;;;;17.30;99.90;;;;;;5138771;27;19907;-66
2023/07/27 12:10:23;;;;;;;;;;;17.30;99.90;;;;;;5138571;27;19915;-66
2023/07/27 12:12:59;;;;;;;;;;;17.30;99.90;;;;;;5138486;27;19961;-66
2023/07/27 12:15:29;;;;;;;;;;;17.30;99.90;;;;;;5139051;27;19915;-66
2023/07/27 12:17:55;;;;;;;;;;;17.30;99.90;;;;;;5138730;27;19914;-66
2023/07/27 12:20:21;;;;;;;;;;;17.30;99.90;;;;;;5138582;28;19920;-66
2023/07/27 12:22:47;;;;;;;;;;;17.30;99.90;;;;;;5139002;28;19911;-66
2023/07/27 12:25:13;;;;;;;;;;;17.30;99.90;;;;;;5138706;28;20281;-66
2023/07/27 12:27:38;;;;;;;;;;;17.30;99.90;;;;;;5138635;28;19907;-66
2023/07/27 12:30:04;;;;;;;;;;;17.30;99.90;;;;;;5138928;28;19911;-66
2023/07/27 12:32:30;;;;;;;;;;;17.30;99.90;;;;;;5138748;28;19996;-67
2023/07/27 12:34:55;;;;;;;;;;;17.30;99.90;;;;;;5138752;28;19948;-65
2023/07/27 12:37:21;;;;;;;;;;;17.30;99.90;;;;;;5138647;28;19994;-66
2023/07/27 12:39:48;;;;;;;;;;;17.20;99.90;;;;;;5138677;28;19915;-66
2023/07/27 12:42:14;;;;;;;;;;;17.20;99.90;;;;;;5138637;28;19968;-66
2023/07/27 12:44:40;;;;;;;;;;;17.20;99.90;;;;;;5138731;28;19907;-66
2023/07/27 12:47:06;;;;;;;;;;;17.20;99.90;;;;;;5138949;28;19913;-66
2023/07/27 12:49:31;;;;;;;;;;;17.30;99.90;;;;;;5138973;28;20243;-66
2023/07/27 12:51:57;;;;;;;;;;;17.30;99.90;;;;;;5138481;28;19922;-66
2023/07/27 12:54:23;;;;;;;;;;;17.20;99.90;;;;;;5136582;28;20472;-66
2023/07/27 12:56:49;;;;;;;;;;;17.30;99.90;;;;;;5138381;28;19990;-66
2023/07/27 12:59:14;;;;;;;;;;;17.30;99.90;;;;;;5129364;28;19908;-66
2023/07/27 13:01:40;;;;;;;;;;;17.30;99.90;;;;;;5118452;28;19919;-66
2023/07/27 13:04:05;;;;;;;;;;;17.30;99.90;;;;;;5117755;28;20328;-65
2023/07/27 13:06:31;;;;;;;;;;;17.30;99.90;;;;;;5117738;28;19915;-65
2023/07/27 13:08:57;;;;;;;;;;;17.30;99.90;;;;;;5117777;28;19947;-66
2023/07/27 13:11:22;;;;;;;;;;;17.30;99.90;;;;;;5127011;28;19915;-66
2023/07/27 13:13:48;;;;;;;;;;;17.30;99.90;;;;;;5117035;28;19908;-66
2023/07/27 13:16:13;;;;;;;;;;;17.30;99.90;;;;;;5116604;28;19916;-65
2023/07/27 13:18:39;;;;;;;;;;;17.30;99.90;;;;;;5130300;27;19912;-65
2023/07/27 13:21:05;;;;;;;;;;;17.30;99.90;;;;;;5141009;27;19920;-66
2023/07/27 13:23:30;;;;;;;;;;;17.40;99.90;;;;;;5135968;27;20314;-65
2023/07/27 13:25:56;;;;;;;;;;;17.30;99.90;;;;;;5120691;27;19908;-65
2023/07/27 13:28:21;;;;;;;;;;;17.40;99.90;;;;;;5120312;28;19912;-65
2023/07/27 13:30:47;;;;;;;;;;;17.40;99.90;;;;;;5120393;28;19916;-65
2023/07/27 13:33:16;;;;;;;;;;;17.40;99.90;;;;;;5120228;28;20374;-65
2023/07/27 13:35:41;;;;;;;;;;;17.40;99.90;;;;;;5120142;28;20342;-65
2023/07/27 13:38:07;;;;;;;;;;;17.50;99.90;;;;;;5120485;28;19923;-65
2023/07/27 13:40:33;;;;;;;;;;;17.40;99.90;;;;;;5120237;28;20390;-65
2023/07/27 13:42:59;;;;;;;;;;;17.40;99.90;;;;;;5120023;28;19908;-65
2023/07/27 13:45:24;;;;;;;;;;;17.40;99.90;;;;;;5120024;28;19907;-65
2023/07/27 13:47:50;;;;;;;;;;;17.50;99.90;;;;;;5120023;28;20001;-65
2023/07/27 13:50:16;;;;;;;;;;;17.50;99.90;;;;;;5120013;28;20388;-65
2023/07/27 13:52:41;;;;;;;;;;;17.50;99.90;;;;;;5119889;28;19918;-65
2023/07/27 13:55:07;;;;;;;;;;;17.50;99.90;;;;;;5119872;28;19923;-65
2023/07/27 13:57:33;;;;;;;;;;;17.50;99.90;;;;;;5117945;28;20011;-65
2023/07/27 14:00:00;;;;;;;;;;;17.50;99.90;;;;;;5119521;28;20313;-65
2023/07/27 14:02:25;;;;;;;;;;;17.50;99.90;;;;;;5135161;27;19950;-65
2023/07/27 14:04:51;;;;;;;;;;;17.60;99.90;;;;;;5140130;27;20378;-65
2023/07/27 14:07:16;;;;;;;;;;;17.60;99.90;;;;;;5139547;27;19919;-65
2023/07/27 14:09:42;;;;;;;;;;;17.60;99.90;;;;;;5138577;27;19982;-65
2023/07/27 14:12:08;;;;;;;;;;;17.50;99.90;;;;;;5127112;27;19926;-65